LGAD/PYR METAR and TAF weather

Enter ICAO airport designator
Station Type Date Time Source
LGAD METAR 2020/08/10 17:50 UTC NOAA

LGAD 101750Z 31007KT 9999 FEW020 27/21 Q1011


Station Type Date Time Source
LGAD Decoded METAR 2020/08/10 17:50 UTC NOAA

Andravida Airport , Greece (LGAD) 37-55N 021-17E 14M
Aug 10, 2020 - 01:50 PM EDT / 2020.08.10 1750 UTC
Wind: from the NW (310 degrees) at 8 MPH (7 KT):0
Visibility: greater than 7 mile(s):0
Sky conditions: mostly clear
Temperature: 80 F (27 C)
Dew Point: 69 F (21 C)
Relative Humidity: 69%
Pressure (altimeter): 29.85 in. Hg (1011 hPa)
ob: LGAD 101750Z 31007KT 9999 FEW020 27/21 Q1011
cycle: 18

Station Type Date Time Source
LGAD TAF 2020/03/18 09:39 UTC NOAA

TAF TAF LGAD 180800Z 1809/1821 30006KT 9999 FEW030
BECMG 1816/1818 07010KT

Example: see airport list